الصفحة الرئيسية
METAR-TAF:

METAR-TAF

مطار :

Wagga Wagga, أستراليا

دائرة عرض: 35-09S, خط طول: 147-27E, ارتفاع: 221 متر

مراقبة الطقس الحالي

تاريخ ووقت الإصدار 25 دقيقة قبل الساعة 17:00UTC
ريح 4 عقدة من الجنوب/الجنوب الشرقي
درجة الحرارة 6°درجة مئوية
الرطوبة 93%
ضغط 1016 hPa
الرؤية 10 كم أو أكثر
غيوم متفرقة على ارتفاع 5700 قدم

METAR: YSWG 221700Z AUTO 15004KT 9999 // SCT057 06/05 Q1016

زمن: 03:25 (17:25 UTC)


TAF: مفقودة

أرصاد الطقس والتوقعات من أكثر من 4000 مطار (تقارير الطقس للمطار METAR والتنبؤ بالطقس بالمطارTAF).

المحطات المتاحة هي النقط الصفراء والحمراء على الخريطة.

حرك المؤشر فوق النقطة لمعرفة اسم المحطة.

ثم انقر لمعرفة أرصاد وتوقعات الطقس.

لتغيير الخارطة: اضغط على الأزرار الخضراء مع رمز الصليب الأسود للتكبير. على الزر الأخضر مع شرطة للتصغير، أو على الأسهم الخضراء للخرائط المجاورة.


METAR-TAF: